sensor_id;sensor_type;location;lat;lon;timestamp;pressure;altitude;pressure_sealevel;temperature
67515;BMP280;60646;55.802;37.032;2024-01-07T00:00:22;99835.81;;;-14.01
67515;BMP280;60646;55.802;37.032;2024-01-07T00:02:48;99864.97;;;-13.80
67515;BMP280;60646;55.802;37.032;2024-01-07T00:05:14;99839.28;;;-13.97
67515;BMP280;60646;55.802;37.032;2024-01-07T00:07:40;99872.97;;;-13.81
67515;BMP280;60646;55.802;37.032;2024-01-07T00:10:06;99850.13;;;-14.00
67515;BMP280;60646;55.802;37.032;2024-01-07T00:12:32;99896.97;;;-13.68
67515;BMP280;60646;55.802;37.032;2024-01-07T00:14:58;99856.03;;;-13.99
67515;BMP280;60646;55.802;37.032;2024-01-07T00:17:24;99864.78;;;-14.00
67515;BMP280;60646;55.802;37.032;2024-01-07T00:19:50;99878.97;;;-13.94
67515;BMP280;60646;55.802;37.032;2024-01-07T00:22:16;99900.56;;;-13.87
67515;BMP280;60646;55.802;37.032;2024-01-07T00:24:43;99914.16;;;-13.78
67515;BMP280;60646;55.802;37.032;2024-01-07T00:27:08;99898.13;;;-13.92
67515;BMP280;60646;55.802;37.032;2024-01-07T00:29:34;99885.59;;;-14.02
67515;BMP280;60646;55.802;37.032;2024-01-07T00:32:02;99916.44;;;-13.85
67515;BMP280;60646;55.802;37.032;2024-01-07T00:34:28;99889.34;;;-14.08
67515;BMP280;60646;55.802;37.032;2024-01-07T00:36:55;99905.06;;;-14.01
67515;BMP280;60646;55.802;37.032;2024-01-07T00:39:21;99910.19;;;-14.01
67515;BMP280;60646;55.802;37.032;2024-01-07T00:41:47;99898.41;;;-14.10
67515;BMP280;60646;55.802;37.032;2024-01-07T00:44:13;99906.84;;;-14.10
67515;BMP280;60646;55.802;37.032;2024-01-07T00:46:38;99902.44;;;-14.18
67515;BMP280;60646;55.802;37.032;2024-01-07T00:49:04;99874.00;;;-14.39
67515;BMP280;60646;55.802;37.032;2024-01-07T00:51:30;99893.75;;;-14.39
67515;BMP280;60646;55.802;37.032;2024-01-07T00:53:56;99914.03;;;-14.29
67515;BMP280;60646;55.802;37.032;2024-01-07T00:56:25;99952.28;;;-14.10
67515;BMP280;60646;55.802;37.032;2024-01-07T00:58:51;99931.50;;;-14.31
67515;BMP280;60646;55.802;37.032;2024-01-07T01:01:17;99949.47;;;-14.23
67515;BMP280;60646;55.802;37.032;2024-01-07T01:03:43;99937.63;;;-14.41
67515;BMP280;60646;55.802;37.032;2024-01-07T01:06:09;99951.09;;;-14.35
67515;BMP280;60646;55.802;37.032;2024-01-07T01:08:35;99957.72;;;-14.34
67515;BMP280;60646;55.802;37.032;2024-01-07T01:11:01;99958.88;;;-14.40
67515;BMP280;60646;55.802;37.032;2024-01-07T01:13:27;99969.72;;;-14.43
67515;BMP280;60646;55.802;37.032;2024-01-07T01:15:53;99939.31;;;-14.67
67515;BMP280;60646;55.802;37.032;2024-01-07T01:18:21;99960.31;;;-14.57
67515;BMP280;60646;55.802;37.032;2024-01-07T01:20:47;99960.88;;;-14.60
67515;BMP280;60646;55.802;37.032;2024-01-07T01:23:13;99971.72;;;-14.63
67515;BMP280;60646;55.802;37.032;2024-01-07T01:25:38;99959.38;;;-14.83
67515;BMP280;60646;55.802;37.032;2024-01-07T01:28:05;99978.72;;;-14.77
67515;BMP280;60646;55.802;37.032;2024-01-07T01:30:31;99969.75;;;-14.88
67515;BMP280;60646;55.802;37.032;2024-01-07T01:32:58;99996.31;;;-14.84
67515;BMP280;60646;55.802;37.032;2024-01-07T01:35:23;100004.63;;;-14.78
67515;BMP280;60646;55.802;37.032;2024-01-07T01:37:49;100008.03;;;-14.83
67515;BMP280;60646;55.802;37.032;2024-01-07T01:40:19;100001.03;;;-14.91
67515;BMP280;60646;55.802;37.032;2024-01-07T01:42:44;100006.16;;;-14.91
67515;BMP280;60646;55.802;37.032;2024-01-07T01:45:10;99985.66;;;-15.13
67515;BMP280;60646;55.802;37.032;2024-01-07T01:47:36;100027.41;;;-14.91
67515;BMP280;60646;55.802;37.032;2024-01-07T01:50:03;100007.38;;;-15.11
67515;BMP280;60646;55.802;37.032;2024-01-07T01:52:30;100053.44;;;-14.97
67515;BMP280;60646;55.802;37.032;2024-01-07T01:54:57;100019.13;;;-15.24
67515;BMP280;60646;55.802;37.032;2024-01-07T01:57:28;100014.84;;;-15.28
67515;BMP280;60646;55.802;37.032;2024-01-07T01:59:58;100022.34;;;-15.32
67515;BMP280;60646;55.802;37.032;2024-01-07T02:02:33;100027.75;;;-15.33
67515;BMP280;60646;55.802;37.032;2024-01-07T02:05:03;100032.50;;;-15.40
67515;BMP280;60646;55.802;37.032;2024-01-07T02:07:30;100062.16;;;-15.26
67515;BMP280;60646;55.802;37.032;2024-01-07T02:09:56;100072.41;;;-15.26
67515;BMP280;60646;55.802;37.032;2024-01-07T02:12:22;100075.25;;;-15.27
67515;BMP280;60646;55.802;37.032;2024-01-07T02:14:48;100061.78;;;-15.33
67515;BMP280;60646;55.802;37.032;2024-01-07T02:17:15;100036.16;;;-15.60
67515;BMP280;60646;55.802;37.032;2024-01-07T02:19:41;100036.16;;;-15.60
67515;BMP280;60646;55.802;37.032;2024-01-07T02:22:07;100077.06;;;-15.41
67515;BMP280;60646;55.802;37.032;2024-01-07T02:24:33;100045.69;;;-15.61
67515;BMP280;60646;55.802;37.032;2024-01-07T02:26:59;100036.94;;;-15.73
67515;BMP280;60646;55.802;37.032;2024-01-07T02:29:28;100069.53;;;-15.52
67515;BMP280;60646;55.802;37.032;2024-01-07T02:31:54;100054.19;;;-15.65
67515;BMP280;60646;55.802;37.032;2024-01-07T02:34:21;100042.59;;;-15.76
67515;BMP280;60646;55.802;37.032;2024-01-07T02:36:47;100039.56;;;-15.78
67515;BMP280;60646;55.802;37.032;2024-01-07T02:39:13;100049.78;;;-15.78
67515;BMP280;60646;55.802;37.032;2024-01-07T02:41:39;100034.78;;;-15.99
67515;BMP280;60646;55.802;37.032;2024-01-07T02:44:05;100030.53;;;-16.03
67515;BMP280;60646;55.802;37.032;2024-01-07T02:46:30;100041.78;;;-16.04
67515;BMP280;60646;55.802;37.032;2024-01-07T02:48:56;100082.25;;;-15.93
67515;BMP280;60646;55.802;37.032;2024-01-07T02:51:22;100080.75;;;-15.94
67515;BMP280;60646;55.802;37.032;2024-01-07T02:53:48;100053.13;;;-16.10
67515;BMP280;60646;55.802;37.032;2024-01-07T02:56:14;100079.84;;;-16.03
67515;BMP280;60646;55.802;37.032;2024-01-07T02:58:40;100096.16;;;-15.99
67515;BMP280;60646;55.802;37.032;2024-01-07T03:01:09;100079.06;;;-16.17
67515;BMP280;60646;55.802;37.032;2024-01-07T03:03:35;100102.38;;;-16.05
67515;BMP280;60646;55.802;37.032;2024-01-07T03:06:01;100086.03;;;-16.23
67515;BMP280;60646;55.802;37.032;2024-01-07T03:08:27;100097.03;;;-16.22
67515;BMP280;60646;55.802;37.032;2024-01-07T03:10:54;100140.72;;;-16.05
67515;BMP280;60646;55.802;37.032;2024-01-07T03:13:20;100135.75;;;-16.15
67515;BMP280;60646;55.802;37.032;2024-01-07T03:15:46;100131.47;;;-16.20
67515;BMP280;60646;55.802;37.032;2024-01-07T03:18:12;100131.84;;;-16.26
67515;BMP280;60646;55.802;37.032;2024-01-07T03:20:38;100140.53;;;-16.27
67515;BMP280;60646;55.802;37.032;2024-01-07T03:23:04;100152.75;;;-16.24
67515;BMP280;60646;55.802;37.032;2024-01-07T03:25:48;100130.59;;;-16.47
67515;BMP280;60646;55.802;37.032;2024-01-07T03:28:14;100108.31;;;-16.66
67515;BMP280;60646;55.802;37.032;2024-01-07T03:30:40;100151.53;;;-16.50
67515;BMP280;60646;55.802;37.032;2024-01-07T03:33:06;100150.03;;;-16.52
67515;BMP280;60646;55.802;37.032;2024-01-07T03:35:31;100130.28;;;-16.65
67515;BMP280;60646;55.802;37.032;2024-01-07T03:37:57;100167.56;;;-16.45
67515;BMP280;60646;55.802;37.032;2024-01-07T03:40:23;100146.53;;;-16.61
67515;BMP280;60646;55.802;37.032;2024-01-07T03:42:49;100146.09;;;-16.63
67515;BMP280;60646;55.802;37.032;2024-01-07T03:45:15;100169.94;;;-16.48
67515;BMP280;60646;55.802;37.032;2024-01-07T03:47:41;100150.72;;;-16.65
67515;BMP280;60646;55.802;37.032;2024-01-07T03:50:07;100162.97;;;-16.67
67515;BMP280;60646;55.802;37.032;2024-01-07T03:52:33;100165.88;;;-16.73
67515;BMP280;60646;55.802;37.032;2024-01-07T03:55:00;100169.72;;;-16.76
67515;BMP280;60646;55.802;37.032;2024-01-07T03:57:26;100198.19;;;-16.64
67515;BMP280;60646;55.802;37.032;2024-01-07T03:59:52;100185.09;;;-16.81
67515;BMP280;60646;55.802;37.032;2024-01-07T04:02:17;100172.63;;;-16.88
67515;BMP280;60646;55.802;37.032;2024-01-07T04:04:43;100172.88;;;-16.84
67515;BMP280;60646;55.802;37.032;2024-01-07T04:07:10;100180.81;;;-16.85
67515;BMP280;60646;55.802;37.032;2024-01-07T04:09:35;100172.22;;;-16.95
67515;BMP280;60646;55.802;37.032;2024-01-07T04:12:01;100163.91;;;-17.05
67515;BMP280;60646;55.802;37.032;2024-01-07T04:14:46;100166.00;;;-17.12
67515;BMP280;60646;55.802;37.032;2024-01-07T04:17:12;100218.09;;;-16.84
67515;BMP280;60646;55.802;37.032;2024-01-07T04:19:38;100205.69;;;-16.96
67515;BMP280;60646;55.802;37.032;2024-01-07T04:22:04;100192.50;;;-17.08
67515;BMP280;60646;55.802;37.032;2024-01-07T04:24:29;100231.66;;;-16.89
67515;BMP280;60646;55.802;37.032;2024-01-07T04:26:55;100196.16;;;-17.20
67515;BMP280;60646;55.802;37.032;2024-01-07T04:29:21;100243.91;;;-16.91
67515;BMP280;60646;55.802;37.032;2024-01-07T04:31:47;100219.59;;;-17.12
67515;BMP280;60646;55.802;37.032;2024-01-07T04:34:13;100220.84;;;-17.10
67515;BMP280;60646;55.802;37.032;2024-01-07T04:36:39;100213.56;;;-17.22
67515;BMP280;60646;55.802;37.032;2024-01-07T04:39:04;100225.28;;;-17.21
67515;BMP280;60646;55.802;37.032;2024-01-07T04:41:30;100234.94;;;-17.17
67515;BMP280;60646;55.802;37.032;2024-01-07T04:43:56;100235.50;;;-17.21
67515;BMP280;60646;55.802;37.032;2024-01-07T04:46:22;100226.91;;;-17.30
67515;BMP280;60646;55.802;37.032;2024-01-07T04:48:48;100251.56;;;-17.20
67515;BMP280;60646;55.802;37.032;2024-01-07T04:51:14;100261.47;;;-17.13
67515;BMP280;60646;55.802;37.032;2024-01-07T04:53:40;100250.31;;;-17.28
67515;BMP280;60646;55.802;37.032;2024-01-07T04:56:06;100257.19;;;-17.23
67515;BMP280;60646;55.802;37.032;2024-01-07T04:58:32;100232.34;;;-17.46
67515;BMP280;60646;55.802;37.032;2024-01-07T05:00:58;100268.22;;;-17.33
67515;BMP280;60646;55.802;37.032;2024-01-07T05:03:24;100273.88;;;-17.36
67515;BMP280;60646;55.802;37.032;2024-01-07T05:05:49;100278.97;;;-17.36
67515;BMP280;60646;55.802;37.032;2024-01-07T05:08:15;100273.94;;;-17.46
67515;BMP280;60646;55.802;37.032;2024-01-07T05:10:41;100294.28;;;-17.36
67515;BMP280;60646;55.802;37.032;2024-01-07T05:13:07;100295.31;;;-17.42
67515;BMP280;60646;55.802;37.032;2024-01-07T05:15:33;100289.28;;;-17.56
67515;BMP280;60646;55.802;37.032;2024-01-07T05:17:59;100298.19;;;-17.54
67515;BMP280;60646;55.802;37.032;2024-01-07T05:20:24;100312.75;;;-17.54
67515;BMP280;60646;55.802;37.032;2024-01-07T05:22:50;100324.00;;;-17.60
67515;BMP280;60646;55.802;37.032;2024-01-07T05:25:16;100326.31;;;-17.69
67515;BMP280;60646;55.802;37.032;2024-01-07T05:27:42;100346.44;;;-17.62
67515;BMP280;60646;55.802;37.032;2024-01-07T05:30:08;100357.94;;;-17.65
67515;BMP280;60646;55.802;37.032;2024-01-07T05:32:33;100309.84;;;-17.97
67515;BMP280;60646;55.802;37.032;2024-01-07T05:34:59;100327.66;;;-17.92
67515;BMP280;60646;55.802;37.032;2024-01-07T05:37:25;100306.31;;;-18.06
67515;BMP280;60646;55.802;37.032;2024-01-07T05:39:51;100332.75;;;-17.87
67515;BMP280;60646;55.802;37.032;2024-01-07T05:42:17;100311.41;;;-18.06
67515;BMP280;60646;55.802;37.032;2024-01-07T05:44:43;100341.44;;;-17.93
67515;BMP280;60646;55.802;37.032;2024-01-07T05:47:08;100328.75;;;-18.03
67515;BMP280;60646;55.802;37.032;2024-01-07T05:49:34;100312.47;;;-18.22
67515;BMP280;60646;55.802;37.032;2024-01-07T05:52:03;100333.09;;;-18.08
67515;BMP280;60646;55.802;37.032;2024-01-07T05:54:29;100330.31;;;-18.17
67515;BMP280;60646;55.802;37.032;2024-01-07T05:56:55;100345.81;;;-18.03
67515;BMP280;60646;55.802;37.032;2024-01-07T05:59:21;100334.38;;;-18.21
67515;BMP280;60646;55.802;37.032;2024-01-07T06:01:47;100334.38;;;-18.21
67515;BMP280;60646;55.802;37.032;2024-01-07T06:04:13;100348.63;;;-18.15
67515;BMP280;60646;55.802;37.032;2024-01-07T06:06:39;100326.75;;;-18.26
67515;BMP280;60646;55.802;37.032;2024-01-07T06:09:04;100350.69;;;-18.17
67515;BMP280;60646;55.802;37.032;2024-01-07T06:11:30;100361.13;;;-18.13
67515;BMP280;60646;55.802;37.032;2024-01-07T06:13:56;100346.13;;;-18.25
67515;BMP280;60646;55.802;37.032;2024-01-07T06:16:22;100349.16;;;-18.18
67515;BMP280;60646;55.802;37.032;2024-01-07T06:18:48;100347.38;;;-18.23
67515;BMP280;60646;55.802;37.032;2024-01-07T06:21:14;100359.84;;;-18.16
67515;BMP280;60646;55.802;37.032;2024-01-07T06:23:40;100347.13;;;-18.31
67515;BMP280;60646;55.802;37.032;2024-01-07T06:26:05;100392.47;;;-18.03
67515;BMP280;60646;55.802;37.032;2024-01-07T06:28:32;100345.63;;;-18.37
67515;BMP280;60646;55.802;37.032;2024-01-07T06:30:59;100403.13;;;-18.06
67515;BMP280;60646;55.802;37.032;2024-01-07T06:33:24;100383.81;;;-18.22
67515;BMP280;60646;55.802;37.032;2024-01-07T06:35:50;100382.28;;;-18.23
67515;BMP280;60646;55.802;37.032;2024-01-07T06:38:16;100404.91;;;-18.11
67515;BMP280;60646;55.802;37.032;2024-01-07T06:40:42;100389.69;;;-18.27
67515;BMP280;60646;55.802;37.032;2024-01-07T06:43:08;100409.75;;;-18.15
67515;BMP280;60646;55.802;37.032;2024-01-07T06:45:33;100436.03;;;-17.99
67515;BMP280;60646;55.802;37.032;2024-01-07T06:47:59;100436.03;;;-17.99
67515;BMP280;60646;55.802;37.032;2024-01-07T06:50:26;100449.50;;;-17.89
67515;BMP280;60646;55.802;37.032;2024-01-07T06:52:52;100404.44;;;-18.24
67515;BMP280;60646;55.802;37.032;2024-01-07T06:55:18;100432.94;;;-18.06
67515;BMP280;60646;55.802;37.032;2024-01-07T06:57:47;100432.69;;;-18.20
67515;BMP280;60646;55.802;37.032;2024-01-07T07:00:15;100458.19;;;-18.10
67515;BMP280;60646;55.802;37.032;2024-01-07T07:02:41;100412.84;;;-18.43
67515;BMP280;60646;55.802;37.032;2024-01-07T07:05:07;100417.44;;;-18.40
67515;BMP280;60646;55.802;37.032;2024-01-07T07:07:34;100443.94;;;-18.26
67515;BMP280;60646;55.802;37.032;2024-01-07T07:10:00;100442.91;;;-18.25
67515;BMP280;60646;55.802;37.032;2024-01-07T07:12:26;100454.59;;;-18.29
67515;BMP280;60646;55.802;37.032;2024-01-07T07:14:51;100457.16;;;-18.24
67515;BMP280;60646;55.802;37.032;2024-01-07T07:17:17;100464.31;;;-18.21
67515;BMP280;60646;55.802;37.032;2024-01-07T07:19:43;100487.78;;;-18.09
67515;BMP280;60646;55.802;37.032;2024-01-07T07:22:09;100448.47;;;-18.33
67515;BMP280;60646;55.802;37.032;2024-01-07T07:24:35;100475.00;;;-18.19
67515;BMP280;60646;55.802;37.032;2024-01-07T07:27:04;100474.00;;;-18.23
67515;BMP280;60646;55.802;37.032;2024-01-07T07:29:30;100464.56;;;-18.33
67515;BMP280;60646;55.802;37.032;2024-01-07T07:31:56;100462.78;;;-18.37
67515;BMP280;60646;55.802;37.032;2024-01-07T07:34:22;100474.97;;;-18.29
67515;BMP280;60646;55.802;37.032;2024-01-07T07:36:47;100477.53;;;-18.29
67515;BMP280;60646;55.802;37.032;2024-01-07T07:39:13;100484.69;;;-18.21
67515;BMP280;60646;55.802;37.032;2024-01-07T07:41:40;100479.59;;;-18.16
67515;BMP280;60646;55.802;37.032;2024-01-07T07:44:07;100484.72;;;-18.16
67515;BMP280;60646;55.802;37.032;2024-01-07T07:46:33;100443.41;;;-18.48
67515;BMP280;60646;55.802;37.032;2024-01-07T07:48:59;100492.81;;;-18.19
67515;BMP280;60646;55.802;37.032;2024-01-07T07:51:26;100510.16;;;-18.06
67515;BMP280;60646;55.802;37.032;2024-01-07T07:53:53;100497.97;;;-18.14
67515;BMP280;60646;55.802;37.032;2024-01-07T07:56:19;100496.41;;;-18.15
67515;BMP280;60646;55.802;37.032;2024-01-07T07:58:46;100507.63;;;-18.11
67515;BMP280;60646;55.802;37.032;2024-01-07T08:01:11;100517.06;;;-18.01
67515;BMP280;60646;55.802;37.032;2024-01-07T08:03:37;100504.59;;;-18.13
67515;BMP280;60646;55.802;37.032;2024-01-07T08:06:03;100517.81;;;-18.01
67515;BMP280;60646;55.802;37.032;2024-01-07T08:08:29;100513.72;;;-18.02
67515;BMP280;60646;55.802;37.032;2024-01-07T08:10:55;100545.34;;;-17.82
67515;BMP280;60646;55.802;37.032;2024-01-07T08:13:21;100539.25;;;-17.87
67515;BMP280;60646;55.802;37.032;2024-01-07T08:15:46;100529.56;;;-17.95
67515;BMP280;60646;55.802;37.032;2024-01-07T08:18:13;100519.88;;;-18.03
67515;BMP280;60646;55.802;37.032;2024-01-07T08:20:39;100531.06;;;-17.89
67515;BMP280;60646;55.802;37.032;2024-01-07T08:23:05;100532.59;;;-17.88
67515;BMP280;60646;55.802;37.032;2024-01-07T08:25:31;100541.78;;;-17.81
67515;BMP280;60646;55.802;37.032;2024-01-07T08:27:58;100545.91;;;-17.75
67515;BMP280;60646;55.802;37.032;2024-01-07T08:30:23;100540.00;;;-17.76
67515;BMP280;60646;55.802;37.032;2024-01-07T08:32:49;100523.94;;;-17.87
67515;BMP280;60646;55.802;37.032;2024-01-07T08:35:15;100554.78;;;-17.73
67515;BMP280;60646;55.802;37.032;2024-01-07T08:37:41;100580.81;;;-17.61
67515;BMP280;60646;55.802;37.032;2024-01-07T08:40:07;100572.38;;;-17.61
67515;BMP280;60646;55.802;37.032;2024-01-07T08:42:35;100537.22;;;-17.90
67515;BMP280;60646;55.802;37.032;2024-01-07T08:45:01;100549.22;;;-17.80
67515;BMP280;60646;55.802;37.032;2024-01-07T08:47:31;100590.25;;;-17.56
67515;BMP280;60646;55.802;37.032;2024-01-07T08:49:57;100547.41;;;-17.79
67515;BMP280;60646;55.802;37.032;2024-01-07T08:52:24;100541.28;;;-17.78
67515;BMP280;60646;55.802;37.032;2024-01-07T08:54:50;100571.88;;;-17.58
67515;BMP280;60646;55.802;37.032;2024-01-07T08:57:16;100586.13;;;-17.52
67515;BMP280;60646;55.802;37.032;2024-01-07T08:59:42;100586.69;;;-17.45
67515;BMP280;60646;55.802;37.032;2024-01-07T09:02:08;100561.94;;;-17.55
67515;BMP280;60646;55.802;37.032;2024-01-07T09:04:34;100567.81;;;-17.54
67515;BMP280;60646;55.802;37.032;2024-01-07T09:07:01;100561.69;;;-17.48
67515;BMP280;60646;55.802;37.032;2024-01-07T09:09:27;100579.03;;;-17.40
67515;BMP280;60646;55.802;37.032;2024-01-07T09:11:52;100588.94;;;-17.23
67515;BMP280;60646;55.802;37.032;2024-01-07T09:14:18;100562.19;;;-17.36
67515;BMP280;60646;55.802;37.032;2024-01-07T09:16:44;100570.59;;;-17.25
67515;BMP280;60646;55.802;37.032;2024-01-07T09:19:10;100590.44;;;-17.12
67515;BMP280;60646;55.802;37.032;2024-01-07T09:21:38;100592.22;;;-17.07
67515;BMP280;60646;55.802;37.032;2024-01-07T09:24:04;100598.34;;;-17.03
67515;BMP280;60646;55.802;37.032;2024-01-07T09:26:30;100596.81;;;-17.04
67515;BMP280;60646;55.802;37.032;2024-01-07T09:28:56;100591.47;;;-17.08
67515;BMP280;60646;55.802;37.032;2024-01-07T09:31:22;100584.31;;;-17.11
67515;BMP280;60646;55.802;37.032;2024-01-07T09:33:49;100578.41;;;-17.06
67515;BMP280;60646;55.802;37.032;2024-01-07T09:36:18;100599.34;;;-16.89
67515;BMP280;60646;55.802;37.032;2024-01-07T09:38:44;100555.50;;;-17.11
67515;BMP280;60646;55.802;37.032;2024-01-07T09:41:13;100566.66;;;-16.97
67515;BMP280;60646;55.802;37.032;2024-01-07T09:43:39;100587.59;;;-16.85
67515;BMP280;60646;55.802;37.032;2024-01-07T09:46:07;100601.78;;;-16.64
67515;BMP280;60646;55.802;37.032;2024-01-07T09:48:36;100594.16;;;-16.69
67515;BMP280;60646;55.802;37.032;2024-01-07T09:51:03;100603.78;;;-16.56
67515;BMP280;60646;55.802;37.032;2024-01-07T09:53:31;100600.22;;;-16.55
67515;BMP280;60646;55.802;37.032;2024-01-07T09:58:48;100597.91;;;-16.56
67515;BMP280;60646;55.802;37.032;2024-01-07T10:01:17;100622.63;;;-16.36
67515;BMP280;60646;55.802;37.032;2024-01-07T10:03:43;100615.97;;;-16.37
67515;BMP280;60646;55.802;37.032;2024-01-07T10:06:10;100598.16;;;-16.47
67515;BMP280;60646;55.802;37.032;2024-01-07T10:08:37;100592.25;;;-16.43
67515;BMP280;60646;55.802;37.032;2024-01-07T10:11:03;100586.13;;;-16.47
67515;BMP280;60646;55.802;37.032;2024-01-07T10:13:31;100591.94;;;-16.36
67515;BMP280;60646;55.802;37.032;2024-01-07T10:15:58;100621.75;;;-16.16
67515;BMP280;60646;55.802;37.032;2024-01-07T10:18:25;100590.16;;;-16.36
67515;BMP280;60646;55.802;37.032;2024-01-07T10:20:51;100585.56;;;-16.34
67515;BMP280;60646;55.802;37.032;2024-01-07T10:23:19;100577.13;;;-16.39
67515;BMP280;60646;55.802;37.032;2024-01-07T10:25:45;100607.19;;;-16.16
67515;BMP280;60646;55.802;37.032;2024-01-07T10:28:13;100585.25;;;-16.27
67515;BMP280;60646;55.802;37.032;2024-01-07T10:30:40;100587.78;;;-16.22
67515;BMP280;60646;55.802;37.032;2024-01-07T10:33:07;100619.56;;;-15.94
67515;BMP280;60646;55.802;37.032;2024-01-07T10:35:35;100624.94;;;-15.91
67515;BMP280;60646;55.802;37.032;2024-01-07T10:38:02;100605.28;;;-16.00
67515;BMP280;60646;55.802;37.032;2024-01-07T10:40:30;100626.91;;;-15.82
67515;BMP280;60646;55.802;37.032;2024-01-07T10:42:58;100585.16;;;-16.07
67515;BMP280;60646;55.802;37.032;2024-01-07T10:45:24;100602.41;;;-15.89
67515;BMP280;60646;55.802;37.032;2024-01-07T10:47:54;100627.84;;;-15.68
67515;BMP280;60646;55.802;37.032;2024-01-07T10:50:26;100625.78;;;-15.66
67515;BMP280;60646;55.802;37.032;2024-01-07T10:52:57;100626.50;;;-15.61
67515;BMP280;60646;55.802;37.032;2024-01-07T10:55:25;100638.75;;;-15.58
67515;BMP280;60646;55.802;37.032;2024-01-07T10:57:53;100626.22;;;-15.59
67515;BMP280;60646;55.802;37.032;2024-01-07T11:00:20;100634.88;;;-15.55
67515;BMP280;60646;55.802;37.032;2024-01-07T11:03:27;100644.56;;;-15.47
67515;BMP280;60646;55.802;37.032;2024-01-07T11:05:58;100619.06;;;-15.57
67515;BMP280;60646;55.802;37.032;2024-01-07T11:11:30;100641.41;;;-15.39
67515;BMP280;60646;55.802;37.032;2024-01-07T11:13:58;100611.09;;;-15.56
67515;BMP280;60646;55.802;37.032;2024-01-07T11:16:43;100633.13;;;-15.31
67515;BMP280;60646;55.802;37.032;2024-01-07T11:19:13;100599.56;;;-15.53
67515;BMP280;60646;55.802;37.032;2024-01-07T11:21:40;100603.69;;;-15.57
67515;BMP280;60646;55.802;37.032;2024-01-07T11:24:06;100597.47;;;-15.51
67515;BMP280;60646;55.802;37.032;2024-01-07T11:26:32;100619.41;;;-15.40
67515;BMP280;60646;55.802;37.032;2024-01-07T11:29:00;100619.84;;;-15.33
67515;BMP280;60646;55.802;37.032;2024-01-07T11:34:06;100628.00;;;-15.31
67515;BMP280;60646;55.802;37.032;2024-01-07T11:36:38;100636.09;;;-15.19
67515;BMP280;60646;55.802;37.032;2024-01-07T11:39:05;100656.47;;;-15.08
67515;BMP280;60646;55.802;37.032;2024-01-07T11:41:35;100634.09;;;-15.22
67515;BMP280;60646;55.802;37.032;2024-01-07T11:44:02;100639.66;;;-15.20
67515;BMP280;60646;55.802;37.032;2024-01-07T11:46:29;100631.00;;;-15.19
67515;BMP280;60646;55.802;37.032;2024-01-07T11:48:59;100626.19;;;-15.25
67515;BMP280;60646;55.802;37.032;2024-01-07T11:51:26;100641.22;;;-15.19
67515;BMP280;60646;55.802;37.032;2024-01-07T11:53:53;100648.38;;;-15.15
67515;BMP280;60646;55.802;37.032;2024-01-07T11:56:19;100651.94;;;-15.11
67515;BMP280;60646;55.802;37.032;2024-01-07T11:58:45;100627.69;;;-15.24
67515;BMP280;60646;55.802;37.032;2024-01-07T12:01:11;100630.00;;;-15.23
67515;BMP280;60646;55.802;37.032;2024-01-07T12:03:37;100649.63;;;-15.13
67515;BMP280;60646;55.802;37.032;2024-01-07T12:06:03;100650.94;;;-15.15
67515;BMP280;60646;55.802;37.032;2024-01-07T12:08:30;100651.47;;;-15.19
67515;BMP280;60646;55.802;37.032;2024-01-07T12:10:56;100645.91;;;-15.26
67515;BMP280;60646;55.802;37.032;2024-01-07T12:13:23;100656.13;;;-15.26
67515;BMP280;60646;55.802;37.032;2024-01-07T12:15:50;100654.59;;;-15.27
67515;BMP280;60646;55.802;37.032;2024-01-07T12:18:16;100673.75;;;-15.19
67515;BMP280;60646;55.802;37.032;2024-01-07T12:20:42;100664.41;;;-15.34
67515;BMP280;60646;55.802;37.032;2024-01-07T12:23:08;100679.59;;;-15.13
67515;BMP280;60646;55.802;37.032;2024-01-07T12:25:35;100688.84;;;-15.18
67515;BMP280;60646;55.802;37.032;2024-01-07T12:28:02;100691.69;;;-15.19
67515;BMP280;60646;55.802;37.032;2024-01-07T12:30:28;100664.94;;;-15.37
67515;BMP280;60646;55.802;37.032;2024-01-07T12:32:55;100686.06;;;-15.21
67515;BMP280;60646;55.802;37.032;2024-01-07T12:35:21;100667.47;;;-15.37
67515;BMP280;60646;55.802;37.032;2024-01-07T12:37:48;100658.88;;;-15.46
67515;BMP280;60646;55.802;37.032;2024-01-07T12:40:14;100687.41;;;-15.29
67515;BMP280;60646;55.802;37.032;2024-01-07T12:42:41;100683.88;;;-15.38
67515;BMP280;60646;55.802;37.032;2024-01-07T12:45:14;100686.97;;;-15.36
67515;BMP280;60646;55.802;37.032;2024-01-07T12:47:41;100695.16;;;-15.34
67515;BMP280;60646;55.802;37.032;2024-01-07T12:50:09;100697.19;;;-15.36
67515;BMP280;60646;55.802;37.032;2024-01-07T12:52:38;100684.97;;;-15.44
67515;BMP280;60646;55.802;37.032;2024-01-07T12:55:08;100700.81;;;-15.42
67515;BMP280;60646;55.802;37.032;2024-01-07T12:57:34;100662.09;;;-15.69
67515;BMP280;60646;55.802;37.032;2024-01-07T13:00:03;100652.97;;;-15.80
67515;BMP280;60646;55.802;37.032;2024-01-07T13:02:33;100687.69;;;-15.69
67515;BMP280;60646;55.802;37.032;2024-01-07T13:05:00;100712.72;;;-15.56
67515;BMP280;60646;55.802;37.032;2024-01-07T13:07:26;100685.72;;;-15.77
67515;BMP280;60646;55.802;37.032;2024-01-07T13:09:52;100683.94;;;-15.82
67515;BMP280;60646;55.802;37.032;2024-01-07T13:12:18;100711.78;;;-15.70
67515;BMP280;60646;55.802;37.032;2024-01-07T13:14:44;100665.66;;;-16.04
67515;BMP280;60646;55.802;37.032;2024-01-07T13:17:13;100714.34;;;-15.75
67515;BMP280;60646;55.802;37.032;2024-01-07T13:19:39;100698.28;;;-15.86
67515;BMP280;60646;55.802;37.032;2024-01-07T13:22:05;100685.84;;;-15.98
67515;BMP280;60646;55.802;37.032;2024-01-07T13:24:31;100735.81;;;-15.71
67515;BMP280;60646;55.802;37.032;2024-01-07T13:26:57;100685.06;;;-15.98
67515;BMP280;60646;55.802;37.032;2024-01-07T13:29:24;100678.19;;;-16.03
67515;BMP280;60646;55.802;37.032;2024-01-07T13:31:57;100677.22;;;-16.07
67515;BMP280;60646;55.802;37.032;2024-01-07T13:34:30;100719.53;;;-15.86
67515;BMP280;60646;55.802;37.032;2024-01-07T13:36:56;100717.00;;;-15.91
67515;BMP280;60646;55.802;37.032;2024-01-07T13:39:26;100698.91;;;-16.09